createdAt,value
2024-04-30T00:04:17.474Z,-18635.00
2024-04-30T00:09:18.282Z,-18641.00
2024-04-30T00:14:19.048Z,-18640.00
2024-04-30T00:19:19.895Z,-18631.00
2024-04-30T00:24:20.715Z,-18633.00
2024-04-30T00:29:21.457Z,-18637.00
2024-04-30T00:34:22.214Z,-18637.00
2024-04-30T00:39:23.004Z,-18638.00
2024-04-30T00:44:23.750Z,-18636.00
2024-04-30T00:49:25.240Z,-18632.00
2024-04-30T00:54:26.156Z,-18627.00
2024-04-30T00:59:26.949Z,-18626.00
2024-04-30T01:04:28.372Z,-18629.00
2024-04-30T01:09:29.114Z,-18636.00
2024-04-30T01:14:30.320Z,-18636.00
2024-04-30T01:19:31.081Z,-18638.00
2024-04-30T01:24:31.843Z,-18640.00
2024-04-30T01:29:32.656Z,-18641.00
2024-04-30T01:34:36.359Z,-18644.00
2024-04-30T01:39:37.092Z,-18652.00
2024-04-30T01:44:37.905Z,-18657.00
2024-04-30T01:49:38.704Z,-18657.00
2024-04-30T01:54:39.458Z,-18657.00
2024-04-30T01:59:43.476Z,-18664.00
2024-04-30T02:04:49.394Z,-18663.00
2024-04-30T02:09:54.096Z,-18665.00
2024-04-30T02:14:55.025Z,-18668.00
2024-04-30T02:19:55.838Z,-18675.00
2024-04-30T02:24:56.594Z,-18680.00
2024-04-30T02:29:57.334Z,-18683.00
2024-04-30T02:34:58.077Z,-18685.00
2024-04-30T02:39:58.883Z,-18682.00
2024-04-30T02:44:59.716Z,-18689.00
2024-04-30T02:50:00.502Z,-18688.00
2024-04-30T02:55:01.392Z,-18689.00
2024-04-30T03:00:02.794Z,-18686.00
2024-04-30T03:05:03.898Z,-18686.00
2024-04-30T03:10:05.277Z,-18685.00
2024-04-30T03:15:07.010Z,-18686.00
2024-04-30T03:20:08.073Z,-18689.00
2024-04-30T03:25:08.853Z,-18684.00
2024-04-30T03:30:09.794Z,-18682.00
2024-04-30T03:35:10.567Z,-18679.00
2024-04-30T03:40:11.327Z,-18677.00
2024-04-30T03:45:12.169Z,-18679.00
2024-04-30T03:50:12.943Z,-18675.00
2024-04-30T03:55:13.700Z,-18676.00
2024-04-30T04:00:14.523Z,-18679.00
2024-04-30T04:05:15.264Z,-18681.00
2024-04-30T04:10:16.114Z,-18685.00
2024-04-30T04:15:17.069Z,-18686.00
2024-04-30T04:20:17.844Z,-18684.00
2024-04-30T04:25:18.647Z,-18684.00
2024-04-30T04:30:19.461Z,-18680.00
2024-04-30T04:35:20.212Z,-18678.00
2024-04-30T04:40:21.024Z,-18678.00
2024-04-30T04:45:21.807Z,-18679.00
2024-04-30T04:50:22.595Z,-18676.00
2024-04-30T04:55:23.401Z,-18678.00
2024-04-30T05:00:24.564Z,-18679.00
2024-04-30T05:05:25.310Z,-18686.00
2024-04-30T05:10:26.080Z,-18688.00
2024-04-30T05:15:27.003Z,-18690.00
2024-04-30T05:20:27.810Z,-18692.00
2024-04-30T05:25:28.656Z,-18697.00
2024-04-30T05:30:29.466Z,-18689.00
2024-04-30T05:35:30.235Z,-18686.00
2024-04-30T05:40:31.010Z,-18685.00
2024-04-30T05:45:31.873Z,-18687.00
2024-04-30T05:50:32.697Z,-18692.00
2024-04-30T05:55:33.505Z,-18698.00
2024-04-30T06:00:34.336Z,-18702.00
2024-04-30T06:05:35.224Z,-18721.00
2024-04-30T06:10:36.075Z,-18724.00
2024-04-30T06:15:36.994Z,-18736.00
2024-04-30T06:20:39.288Z,-18746.00
2024-04-30T06:25:40.234Z,-18753.00
2024-04-30T06:30:41.240Z,-18762.00
2024-04-30T06:35:42.021Z,-18768.00
2024-04-30T06:40:42.884Z,-18776.00
2024-04-30T06:45:43.644Z,-18771.00
2024-04-30T06:50:44.416Z,-18777.00
2024-04-30T06:55:45.209Z,-18784.00
2024-04-30T07:00:46.039Z,-18788.00
2024-04-30T07:05:47.076Z,-18788.00
2024-04-30T07:10:47.989Z,-18786.00
2024-04-30T07:15:49.004Z,-18789.00
2024-04-30T07:20:49.770Z,-18794.00
2024-04-30T07:25:50.558Z,-18794.00
2024-04-30T07:30:51.314Z,-18798.00
2024-04-30T07:35:52.066Z,-18810.00
2024-04-30T07:40:52.951Z,-18813.00
2024-04-30T07:45:53.700Z,-18817.00
2024-04-30T07:50:54.491Z,-18825.00
2024-04-30T07:55:55.217Z,-18828.00
2024-04-30T08:00:56.106Z,-18839.00
2024-04-30T08:06:01.276Z,-18853.00
2024-04-30T08:11:07.949Z,-18852.00
2024-04-30T08:16:11.667Z,-18852.00
2024-04-30T08:21:12.529Z,-18860.00
2024-04-30T08:26:13.300Z,-18864.00
2024-04-30T08:31:14.190Z,-18867.00
2024-04-30T08:36:15.012Z,-18876.00
2024-04-30T08:41:15.814Z,-18880.00
2024-04-30T08:46:16.868Z,-18864.00
2024-04-30T08:51:17.706Z,-18867.00
2024-04-30T08:56:18.715Z,-18874.00
2024-04-30T09:01:19.839Z,-18877.00
2024-04-30T09:06:20.717Z,-18882.00
2024-04-30T09:11:21.613Z,-18890.00
2024-04-30T09:16:22.644Z,-18891.00
2024-04-30T09:21:27.548Z,-18897.00
2024-04-30T09:26:28.326Z,-18904.00
2024-04-30T09:31:38.851Z,-18896.00
2024-04-30T09:36:40.435Z,-18906.00
2024-04-30T09:41:43.186Z,-18904.00
2024-04-30T09:46:44.989Z,-18908.00
2024-04-30T09:51:49.590Z,-18923.00
2024-04-30T09:56:52.682Z,-18916.00
2024-04-30T10:01:57.442Z,-18933.00
2024-04-30T10:06:58.541Z,-18938.00
2024-04-30T10:11:59.335Z,-18951.00
2024-04-30T10:17:00.820Z,-18962.00
2024-04-30T10:22:12.750Z,-18962.00
2024-04-30T10:27:24.465Z,-18961.00
2024-04-30T10:32:25.234Z,-18947.00
2024-04-30T10:37:30.209Z,-18961.00
2024-04-30T10:42:37.387Z,-18973.00
2024-04-30T10:47:38.237Z,-18978.00
2024-04-30T10:52:39.109Z,-18970.00
2024-04-30T10:57:42.434Z,-18970.00
2024-04-30T11:02:46.530Z,-18963.00
2024-04-30T11:07:58.686Z,-18982.00
2024-04-30T11:13:03.050Z,-18990.00
2024-04-30T11:18:04.316Z,-19007.00
2024-04-30T11:23:05.141Z,-19006.00
2024-04-30T11:28:06.056Z,-19021.00
2024-04-30T11:33:07.019Z,-19016.00
2024-04-30T11:38:07.954Z,-19022.00
2024-04-30T11:43:08.792Z,-19017.00
2024-04-30T11:48:09.759Z,-19023.00
2024-04-30T11:53:10.709Z,-19017.00
2024-04-30T11:58:11.944Z,-19021.00
2024-04-30T12:03:13.120Z,-19019.00
2024-04-30T12:08:13.948Z,-19008.00
2024-04-30T12:13:14.916Z,-19008.00
2024-04-30T12:18:16.095Z,-19001.00
2024-04-30T12:23:18.738Z,-19021.00
2024-04-30T12:28:20.362Z,-19023.00
2024-04-30T12:33:21.858Z,-19042.00
2024-04-30T12:38:23.580Z,-19032.00
2024-04-30T12:43:24.386Z,-19046.00
2024-04-30T12:48:25.714Z,-19045.00
2024-04-30T12:53:26.601Z,-19036.00
2024-04-30T12:58:27.442Z,-19047.00
2024-04-30T13:03:29.239Z,-19057.00
2024-04-30T13:08:30.058Z,-19042.00
2024-04-30T13:13:30.916Z,-19050.00
2024-04-30T13:18:31.791Z,-19044.00
2024-04-30T13:23:36.252Z,-19043.00
2024-04-30T13:28:37.077Z,-19057.00
2024-04-30T13:33:37.916Z,-19060.00
2024-04-30T13:38:38.899Z,-19058.00
2024-04-30T13:43:39.886Z,-19055.00
2024-04-30T13:48:40.732Z,-19063.00
2024-04-30T13:53:41.583Z,-19036.00
2024-04-30T13:58:42.415Z,-19047.00
2024-04-30T14:03:43.392Z,-19031.00
2024-04-30T14:08:44.188Z,-19032.00
2024-04-30T14:13:45.266Z,-19027.00
2024-04-30T14:18:46.526Z,-19036.00
2024-04-30T14:23:47.401Z,-19044.00
2024-04-30T14:28:48.218Z,-19034.00
2024-04-30T14:33:49.062Z,-19018.00
2024-04-30T14:38:49.847Z,-19017.00
2024-04-30T14:43:50.629Z,-19017.00
2024-04-30T14:48:51.480Z,-19027.00
2024-04-30T14:53:52.272Z,-19033.00
2024-04-30T14:58:53.101Z,-19022.00
2024-04-30T15:03:55.982Z,-19022.00
2024-04-30T15:08:56.838Z,-19024.00
2024-04-30T15:13:57.591Z,-19030.00
2024-04-30T15:18:58.505Z,-19022.00
2024-04-30T15:23:59.282Z,-19016.00
2024-04-30T15:29:00.037Z,-19014.00
2024-04-30T15:34:01.007Z,-19016.00
2024-04-30T15:39:01.838Z,-19012.00
2024-04-30T15:44:02.795Z,-19014.00
2024-04-30T15:49:03.592Z,-19014.00
2024-04-30T15:54:04.490Z,-19010.00
2024-04-30T15:59:07.643Z,-19013.00
2024-04-30T16:04:08.576Z,-19008.00
2024-04-30T16:09:09.383Z,-19006.00
2024-04-30T16:14:10.157Z,-19007.00
2024-04-30T16:19:12.208Z,-19011.00
2024-04-30T16:24:13.741Z,-19005.00
2024-04-30T16:29:14.516Z,-19005.00
2024-04-30T16:34:15.280Z,-19002.00
2024-04-30T16:39:16.117Z,-19004.00
2024-04-30T16:44:16.966Z,-18993.00
2024-04-30T16:49:17.919Z,-18988.00
2024-04-30T16:54:18.838Z,-18983.00
2024-04-30T16:59:19.634Z,-18978.00
2024-04-30T17:04:21.907Z,-18980.00
2024-04-30T17:09:23.016Z,-18980.00
2024-04-30T17:14:23.829Z,-18980.00
2024-04-30T17:19:24.731Z,-18982.00
2024-04-30T17:24:25.516Z,-18979.00
2024-04-30T17:29:26.265Z,-18976.00
2024-04-30T17:34:27.006Z,-18977.00
2024-04-30T17:39:27.804Z,-18977.00
2024-04-30T17:44:28.617Z,-18970.00
2024-04-30T17:49:29.472Z,-18971.00
2024-04-30T17:54:30.262Z,-18964.00
2024-04-30T17:59:31.032Z,-18961.00
2024-04-30T18:04:31.842Z,-18961.00
2024-04-30T18:09:32.807Z,-18954.00
2024-04-30T18:14:33.679Z,-18948.00
2024-04-30T18:19:34.581Z,-18943.00
2024-04-30T18:24:35.444Z,-18937.00
2024-04-30T18:29:36.202Z,-18929.00
2024-04-30T18:34:37.161Z,-18917.00
2024-04-30T18:39:41.063Z,-18902.00
2024-04-30T18:44:41.953Z,-18889.00
2024-04-30T18:49:43.097Z,-18881.00
2024-04-30T18:54:44.141Z,-18878.00
2024-04-30T18:59:44.884Z,-18868.00
2024-04-30T19:04:45.961Z,-18862.00
2024-04-30T19:09:46.848Z,-18854.00
2024-04-30T19:14:48.436Z,-18854.00
2024-04-30T19:19:50.913Z,-18849.00
2024-04-30T19:24:51.861Z,-18842.00
2024-04-30T19:29:52.621Z,-18835.00
2024-04-30T19:34:53.381Z,-18833.00
2024-04-30T19:39:54.333Z,-18830.00
2024-04-30T19:44:55.219Z,-18825.00
2024-04-30T19:49:55.981Z,-18827.00
2024-04-30T19:54:58.218Z,-18821.00
2024-04-30T19:59:58.995Z,-18819.00
2024-04-30T20:04:59.858Z,-18822.00
2024-04-30T20:10:00.671Z,-18822.00
2024-04-30T20:15:01.493Z,-18819.00
2024-04-30T20:20:02.632Z,-18817.00
2024-04-30T20:25:03.909Z,-18816.00
2024-04-30T20:30:08.549Z,-18815.00
2024-04-30T20:35:11.096Z,-18817.00
2024-04-30T20:40:11.981Z,-18818.00
2024-04-30T20:45:12.883Z,-18816.00
2024-04-30T20:50:13.766Z,-18816.00
2024-04-30T20:55:14.581Z,-18814.00
2024-04-30T21:00:15.840Z,-18814.00
2024-04-30T21:05:16.603Z,-18815.00
2024-04-30T21:10:17.365Z,-18812.00
2024-04-30T21:15:18.182Z,-18810.00
2024-04-30T21:20:19.224Z,-18812.00
2024-04-30T21:25:19.970Z,-18810.00
2024-04-30T21:30:20.826Z,-18811.00
2024-04-30T21:35:21.553Z,-18815.00
2024-04-30T21:40:22.337Z,-18812.00
2024-04-30T21:45:23.139Z,-18817.00
2024-04-30T21:50:23.891Z,-18817.00
2024-04-30T21:55:24.648Z,-18813.00
2024-04-30T22:00:25.505Z,-18811.00
2024-04-30T22:05:26.401Z,-18812.00
2024-04-30T22:10:27.244Z,-18816.00
2024-04-30T22:15:28.018Z,-18817.00
2024-04-30T22:20:29.839Z,-18817.00
2024-04-30T22:25:30.675Z,-18811.00
2024-04-30T22:30:31.477Z,-18809.00
2024-04-30T22:35:32.244Z,-18811.00
2024-04-30T22:40:33.087Z,-18817.00
2024-04-30T22:45:33.863Z,-18814.00
2024-04-30T22:50:35.490Z,-18813.00
2024-04-30T22:55:36.254Z,-18817.00
2024-04-30T23:00:37.056Z,-18817.00
2024-04-30T23:05:37.852Z,-18816.00
2024-04-30T23:10:38.635Z,-18812.00
2024-04-30T23:15:39.428Z,-18808.00
2024-04-30T23:20:40.362Z,-18804.00
2024-04-30T23:25:41.639Z,-18795.00
2024-04-30T23:30:42.444Z,-18788.00
2024-04-30T23:35:43.210Z,-18781.00
2024-04-30T23:40:43.957Z,-18784.00
2024-04-30T23:45:44.818Z,-18781.00
2024-04-30T23:50:45.626Z,-18776.00
2024-04-30T23:55:46.372Z,-18772.00
